Airfield :
LOGIN :

Register | Disclaimer

   EN    FR    IT 

 










Legend :    VFR   Marginal VFR   IFR   Intensive IFR   Very Intensive IFR
Visi :
Ceiling :
>= 8 km
>= 3000ft
5 to 8 km
1000 to 3000 ft
1500m to 5 km
500 to 1000 ft
800 to 1500m
200 to 500 ft
< 800m
< 200 ft
Symbols :   Thunderstorms  Fog  Heavy snow  Heavy precipitations  Wind > 20 kt
SIGMETs :     Misc.  Thunderstorms  Icing  Turbulence  Mountain Waves  Volcanic Ashes







- Airport Elevation : 277 ft
- IATA code : JER
- Download approach charts


EGJJ - Jersey

CURRENT METAR :
  • 222020Z 25016KT 9999 FEW011 SCT014 15/14 Q1008

EXPIRED METARs :
  • 221950Z 24016KT 9999 FEW013 SCT017 15/13 Q1008
  • 221920Z 25015KT 9999 FEW015CB SCT016 15/14 Q1007
  • 221850Z 23014KT 9999 VCSH FEW015CB SCT030 15/13 Q1007 RESHRA
  • 221820Z 22013KT 9999 VCSH FEW015CB SCT039 16/14 Q1007
  • 221750Z 23015KT 9999 VCSH FEW015CB SCT038 16/13 Q1006

TAF TAF EGJJ
Valid from the 22 at 18:00 until the 23 at 03:00 UTC


221658Z 2218/2303 24016KT 9999 FEW015CB SCT035
PROB40
TEMPO 2218/2300 8000 SHRA BKN015CB
PROB30
TEMPO 2218/2221 25017G27KT 4000 +TSRAGS BKN010CB
ATIS : +44 1534 498 073
No reported NOTAMs for that airfield.



MET'MAP, your aeronautical weather chart ! - Copyright ORBIFLY December 2007 - Disclaimer

ORBIFLY MET'MAP TEAM :

Programming & Development : Alexandra Zaïnal
Concept & Development : Baudouin d'Aumeries
Co-Development & Prog : Marc-Olivier Méhu
Technical & hardware support : Manuel Goepfert

Contact : metmap@orbifly.com




SOURCES & CREDITS :

   NOAA